sensor_id;sensor_type;location;lat;lon;timestamp;P1;durP1;ratioP1;P2;durP2;ratioP2
10088;SDS011;51898;49.864;8.550;2022-11-27T00:00:40;26.47;;;16.53;;
10088;SDS011;51898;49.864;8.550;2022-11-27T00:03:49;28.27;;;16.47;;
10088;SDS011;51898;49.864;8.550;2022-11-27T00:06:51;27.03;;;15.00;;
10088;SDS011;51898;49.864;8.550;2022-11-27T00:10:00;24.10;;;15.37;;
10088;SDS011;51898;49.864;8.550;2022-11-27T00:13:12;29.63;;;15.00;;
10088;SDS011;51898;49.864;8.550;2022-11-27T00:16:15;24.00;;;15.40;;
10088;SDS011;51898;49.864;8.550;2022-11-27T00:19:18;25.67;;;13.73;;
10088;SDS011;51898;49.864;8.550;2022-11-27T00:22:20;30.27;;;14.00;;
10088;SDS011;51898;49.864;8.550;2022-11-27T00:25:22;27.03;;;14.10;;
10088;SDS011;51898;49.864;8.550;2022-11-27T00:28:35;24.60;;;12.40;;
10088;SDS011;51898;49.864;8.550;2022-11-27T00:31:41;23.60;;;12.23;;
10088;SDS011;51898;49.864;8.550;2022-11-27T00:34:42;19.27;;;12.50;;
10088;SDS011;51898;49.864;8.550;2022-11-27T00:37:50;18.87;;;13.83;;
10088;SDS011;51898;49.864;8.550;2022-11-27T00:40:51;23.57;;;12.97;;
10088;SDS011;51898;49.864;8.550;2022-11-27T00:44:21;19.67;;;11.70;;
10088;SDS011;51898;49.864;8.550;2022-11-27T00:47:26;15.53;;;10.47;;
10088;SDS011;51898;49.864;8.550;2022-11-27T00:50:28;17.73;;;11.17;;
10088;SDS011;51898;49.864;8.550;2022-11-27T00:53:34;19.17;;;10.90;;
10088;SDS011;51898;49.864;8.550;2022-11-27T00:56:38;17.87;;;10.73;;
10088;SDS011;51898;49.864;8.550;2022-11-27T00:59:42;19.77;;;10.37;;
10088;SDS011;51898;49.864;8.550;2022-11-27T01:02:44;17.70;;;9.83;;
10088;SDS011;51898;49.864;8.550;2022-11-27T01:05:46;14.53;;;9.60;;
10088;SDS011;51898;49.864;8.550;2022-11-27T01:08:48;17.57;;;9.67;;
10088;SDS011;51898;49.864;8.550;2022-11-27T01:11:50;19.83;;;9.43;;
10088;SDS011;51898;49.864;8.550;2022-11-27T01:14:55;15.97;;;9.00;;
10088;SDS011;51898;49.864;8.550;2022-11-27T01:18:05;15.60;;;9.27;;
10088;SDS011;51898;49.864;8.550;2022-11-27T01:21:21;21.10;;;9.50;;
10088;SDS011;51898;49.864;8.550;2022-11-27T01:24:23;17.20;;;9.70;;
10088;SDS011;51898;49.864;8.550;2022-11-27T01:27:25;20.47;;;9.20;;
10088;SDS011;51898;49.864;8.550;2022-11-27T01:30:29;20.40;;;10.07;;
10088;SDS011;51898;49.864;8.550;2022-11-27T01:33:32;18.40;;;9.30;;
10088;SDS011;51898;49.864;8.550;2022-11-27T01:36:49;16.63;;;8.87;;
10088;SDS011;51898;49.864;8.550;2022-11-27T01:39:54;20.97;;;9.40;;
10088;SDS011;51898;49.864;8.550;2022-11-27T01:42:55;16.77;;;9.90;;
10088;SDS011;51898;49.864;8.550;2022-11-27T01:45:57;21.57;;;10.50;;
10088;SDS011;51898;49.864;8.550;2022-11-27T01:49:10;19.87;;;11.10;;
10088;SDS011;51898;49.864;8.550;2022-11-27T01:52:33;21.80;;;11.00;;
10088;SDS011;51898;49.864;8.550;2022-11-27T01:55:40;21.83;;;11.10;;
10088;SDS011;51898;49.864;8.550;2022-11-27T01:58:49;22.40;;;10.93;;
10088;SDS011;51898;49.864;8.550;2022-11-27T02:01:57;20.00;;;11.33;;
10088;SDS011;51898;49.864;8.550;2022-11-27T02:05:00;20.87;;;10.73;;
10088;SDS011;51898;49.864;8.550;2022-11-27T02:08:05;25.87;;;12.07;;
10088;SDS011;51898;49.864;8.550;2022-11-27T02:11:14;28.57;;;13.60;;
10088;SDS011;51898;49.864;8.550;2022-11-27T02:14:32;24.47;;;12.67;;
10088;SDS011;51898;49.864;8.550;2022-11-27T02:18:12;21.80;;;11.67;;
10088;SDS011;51898;49.864;8.550;2022-11-27T02:24:56;25.27;;;12.03;;
10088;SDS011;51898;49.864;8.550;2022-11-27T02:28:28;23.93;;;12.40;;
10088;SDS011;51898;49.864;8.550;2022-11-27T02:32:13;24.43;;;11.53;;
10088;SDS011;51898;49.864;8.550;2022-11-27T02:35:29;23.83;;;12.00;;
10088;SDS011;51898;49.864;8.550;2022-11-27T02:38:40;21.47;;;11.40;;
10088;SDS011;51898;49.864;8.550;2022-11-27T02:41:54;22.70;;;11.40;;
10088;SDS011;51898;49.864;8.550;2022-11-27T02:45:30;21.43;;;11.13;;
10088;SDS011;51898;49.864;8.550;2022-11-27T02:48:55;25.30;;;11.30;;
10088;SDS011;51898;49.864;8.550;2022-11-27T02:52:04;20.77;;;10.80;;
10088;SDS011;51898;49.864;8.550;2022-11-27T02:59:14;25.60;;;11.50;;
10088;SDS011;51898;49.864;8.550;2022-11-27T03:02:20;23.53;;;11.80;;
10088;SDS011;51898;49.864;8.550;2022-11-27T03:05:31;25.80;;;12.20;;
10088;SDS011;51898;49.864;8.550;2022-11-27T03:08:41;22.10;;;12.93;;
10088;SDS011;51898;49.864;8.550;2022-11-27T03:11:47;21.37;;;12.50;;
10088;SDS011;51898;49.864;8.550;2022-11-27T03:14:54;23.57;;;11.83;;
10088;SDS011;51898;49.864;8.550;2022-11-27T03:18:00;20.37;;;11.73;;
10088;SDS011;51898;49.864;8.550;2022-11-27T03:24:35;21.73;;;12.63;;
10088;SDS011;51898;49.864;8.550;2022-11-27T03:27:49;19.70;;;11.30;;
10088;SDS011;51898;49.864;8.550;2022-11-27T03:30:55;20.10;;;11.20;;
10088;SDS011;51898;49.864;8.550;2022-11-27T03:34:01;28.33;;;11.57;;
10088;SDS011;51898;49.864;8.550;2022-11-27T03:37:06;27.83;;;13.17;;
10088;SDS011;51898;49.864;8.550;2022-11-27T03:40:14;18.70;;;11.63;;
10088;SDS011;51898;49.864;8.550;2022-11-27T03:43:21;18.30;;;10.63;;
10088;SDS011;51898;49.864;8.550;2022-11-27T03:46:34;27.37;;;10.80;;
10088;SDS011;51898;49.864;8.550;2022-11-27T03:49:50;21.40;;;11.67;;
10088;SDS011;51898;49.864;8.550;2022-11-27T03:53:16;22.27;;;10.80;;
10088;SDS011;51898;49.864;8.550;2022-11-27T03:56:37;22.10;;;10.77;;
10088;SDS011;51898;49.864;8.550;2022-11-27T03:59:51;25.40;;;11.70;;
10088;SDS011;51898;49.864;8.550;2022-11-27T04:02:57;20.97;;;11.33;;
10088;SDS011;51898;49.864;8.550;2022-11-27T04:05:59;24.70;;;11.77;;
10088;SDS011;51898;49.864;8.550;2022-11-27T04:09:01;23.53;;;12.40;;
10088;SDS011;51898;49.864;8.550;2022-11-27T04:12:33;21.40;;;10.33;;
10088;SDS011;51898;49.864;8.550;2022-11-27T04:15:38;23.50;;;11.17;;
10088;SDS011;51898;49.864;8.550;2022-11-27T04:18:43;23.80;;;12.10;;
10088;SDS011;51898;49.864;8.550;2022-11-27T04:21:59;25.57;;;11.87;;
10088;SDS011;51898;49.864;8.550;2022-11-27T04:25:04;22.20;;;11.10;;
10088;SDS011;51898;49.864;8.550;2022-11-27T04:28:07;18.07;;;10.73;;
10088;SDS011;51898;49.864;8.550;2022-11-27T04:31:09;25.40;;;12.10;;
10088;SDS011;51898;49.864;8.550;2022-11-27T04:34:11;28.63;;;12.13;;
10088;SDS011;51898;49.864;8.550;2022-11-27T04:37:18;25.27;;;12.00;;
10088;SDS011;51898;49.864;8.550;2022-11-27T04:40:20;20.93;;;11.10;;
10088;SDS011;51898;49.864;8.550;2022-11-27T04:43:22;19.83;;;11.07;;
10088;SDS011;51898;49.864;8.550;2022-11-27T04:46:24;23.27;;;11.97;;
10088;SDS011;51898;49.864;8.550;2022-11-27T04:49:26;28.87;;;11.17;;
10088;SDS011;51898;49.864;8.550;2022-11-27T04:52:32;20.97;;;10.60;;
10088;SDS011;51898;49.864;8.550;2022-11-27T04:55:34;25.03;;;10.73;;
10088;SDS011;51898;49.864;8.550;2022-11-27T04:58:39;19.17;;;10.93;;
10088;SDS011;51898;49.864;8.550;2022-11-27T05:01:41;17.87;;;12.63;;
10088;SDS011;51898;49.864;8.550;2022-11-27T05:04:58;18.57;;;10.57;;
10088;SDS011;51898;49.864;8.550;2022-11-27T05:08:06;18.83;;;10.70;;
10088;SDS011;51898;49.864;8.550;2022-11-27T05:11:12;19.60;;;11.40;;
10088;SDS011;51898;49.864;8.550;2022-11-27T05:14:15;22.80;;;11.63;;
10088;SDS011;51898;49.864;8.550;2022-11-27T05:17:18;19.73;;;11.50;;
10088;SDS011;51898;49.864;8.550;2022-11-27T05:20:20;18.17;;;10.80;;
10088;SDS011;51898;49.864;8.550;2022-11-27T05:23:58;26.73;;;10.87;;
10088;SDS011;51898;49.864;8.550;2022-11-27T05:27:11;19.70;;;10.10;;
10088;SDS011;51898;49.864;8.550;2022-11-27T05:30:49;21.23;;;9.20;;
10088;SDS011;51898;49.864;8.550;2022-11-27T05:34:20;18.60;;;9.90;;
10088;SDS011;51898;49.864;8.550;2022-11-27T05:37:45;20.50;;;11.30;;
10088;SDS011;51898;49.864;8.550;2022-11-27T05:40:47;26.53;;;11.40;;
10088;SDS011;51898;49.864;8.550;2022-11-27T05:43:49;32.57;;;13.60;;
10088;SDS011;51898;49.864;8.550;2022-11-27T05:50:21;20.27;;;10.37;;
10088;SDS011;51898;49.864;8.550;2022-11-27T05:53:25;19.10;;;9.97;;
10088;SDS011;51898;49.864;8.550;2022-11-27T05:56:33;21.33;;;10.27;;
10088;SDS011;51898;49.864;8.550;2022-11-27T06:00:00;19.17;;;9.27;;
10088;SDS011;51898;49.864;8.550;2022-11-27T06:03:05;33.17;;;10.17;;
10088;SDS011;51898;49.864;8.550;2022-11-27T06:06:08;26.37;;;11.00;;
10088;SDS011;51898;49.864;8.550;2022-11-27T06:09:26;87.70;;;13.93;;
10088;SDS011;51898;49.864;8.550;2022-11-27T06:12:30;75.63;;;14.60;;
10088;SDS011;51898;49.864;8.550;2022-11-27T06:15:36;75.07;;;15.30;;
10088;SDS011;51898;49.864;8.550;2022-11-27T06:18:47;98.20;;;14.00;;
10088;SDS011;51898;49.864;8.550;2022-11-27T06:22:08;180.30;;;19.00;;
10088;SDS011;51898;49.864;8.550;2022-11-27T06:25:19;198.87;;;17.20;;
10088;SDS011;51898;49.864;8.550;2022-11-27T06:28:24;309.00;;;25.50;;
10088;SDS011;51898;49.864;8.550;2022-11-27T06:31:28;195.07;;;18.40;;
10088;SDS011;51898;49.864;8.550;2022-11-27T06:38:18;254.13;;;23.83;;
10088;SDS011;51898;49.864;8.550;2022-11-27T06:41:33;146.00;;;24.17;;
10088;SDS011;51898;49.864;8.550;2022-11-27T06:44:37;266.40;;;24.73;;
10088;SDS011;51898;49.864;8.550;2022-11-27T06:47:39;226.13;;;23.10;;
10088;SDS011;51898;49.864;8.550;2022-11-27T06:50:41;83.47;;;18.33;;
10088;SDS011;51898;49.864;8.550;2022-11-27T06:53:54;183.13;;;25.07;;
10088;SDS011;51898;49.864;8.550;2022-11-27T06:56:57;123.73;;;20.90;;
10088;SDS011;51898;49.864;8.550;2022-11-27T07:00:02;118.03;;;22.63;;
10088;SDS011;51898;49.864;8.550;2022-11-27T07:03:05;180.33;;;23.97;;
10088;SDS011;51898;49.864;8.550;2022-11-27T07:06:13;124.73;;;25.67;;
10088;SDS011;51898;49.864;8.550;2022-11-27T07:09:18;139.20;;;24.57;;
10088;SDS011;51898;49.864;8.550;2022-11-27T07:12:29;145.47;;;23.70;;
10088;SDS011;51898;49.864;8.550;2022-11-27T07:16:03;212.97;;;28.47;;
10088;SDS011;51898;49.864;8.550;2022-11-27T07:19:11;241.73;;;27.23;;
10088;SDS011;51898;49.864;8.550;2022-11-27T07:22:16;133.10;;;24.87;;
10088;SDS011;51898;49.864;8.550;2022-11-27T07:25:31;148.30;;;25.33;;
10088;SDS011;51898;49.864;8.550;2022-11-27T07:28:36;156.03;;;26.77;;
10088;SDS011;51898;49.864;8.550;2022-11-27T07:31:39;137.30;;;23.40;;
10088;SDS011;51898;49.864;8.550;2022-11-27T07:34:47;149.57;;;23.13;;
10088;SDS011;51898;49.864;8.550;2022-11-27T07:37:48;132.37;;;22.03;;
10088;SDS011;51898;49.864;8.550;2022-11-27T07:40:58;159.00;;;24.03;;
10088;SDS011;51898;49.864;8.550;2022-11-27T07:44:22;125.33;;;21.23;;
10088;SDS011;51898;49.864;8.550;2022-11-27T07:47:25;234.57;;;23.67;;
10088;SDS011;51898;49.864;8.550;2022-11-27T07:50:29;130.00;;;21.73;;
10088;SDS011;51898;49.864;8.550;2022-11-27T07:53:59;84.87;;;18.60;;
10088;SDS011;51898;49.864;8.550;2022-11-27T07:57:07;119.17;;;21.70;;
10088;SDS011;51898;49.864;8.550;2022-11-27T08:00:18;78.80;;;20.23;;
10088;SDS011;51898;49.864;8.550;2022-11-27T08:03:48;120.77;;;19.63;;
10088;SDS011;51898;49.864;8.550;2022-11-27T08:06:59;125.93;;;17.80;;
10088;SDS011;51898;49.864;8.550;2022-11-27T08:10:01;102.27;;;19.23;;
10088;SDS011;51898;49.864;8.550;2022-11-27T08:13:04;80.77;;;19.50;;
10088;SDS011;51898;49.864;8.550;2022-11-27T08:16:06;53.10;;;19.00;;
10088;SDS011;51898;49.864;8.550;2022-11-27T08:19:08;61.30;;;16.37;;
10088;SDS011;51898;49.864;8.550;2022-11-27T08:22:14;85.63;;;18.17;;
10088;SDS011;51898;49.864;8.550;2022-11-27T08:25:17;69.00;;;16.73;;
10088;SDS011;51898;49.864;8.550;2022-11-27T08:28:19;89.00;;;18.60;;
10088;SDS011;51898;49.864;8.550;2022-11-27T08:31:21;65.73;;;18.67;;
10088;SDS011;51898;49.864;8.550;2022-11-27T08:34:23;70.80;;;16.87;;
10088;SDS011;51898;49.864;8.550;2022-11-27T08:37:26;62.00;;;17.73;;
10088;SDS011;51898;49.864;8.550;2022-11-27T08:40:28;71.23;;;16.60;;
10088;SDS011;51898;49.864;8.550;2022-11-27T08:43:32;62.50;;;17.47;;
10088;SDS011;51898;49.864;8.550;2022-11-27T08:46:35;66.63;;;16.87;;
10088;SDS011;51898;49.864;8.550;2022-11-27T08:49:37;83.07;;;27.37;;
10088;SDS011;51898;49.864;8.550;2022-11-27T08:52:46;105.43;;;33.20;;
10088;SDS011;51898;49.864;8.550;2022-11-27T09:00:04;71.90;;;20.90;;
10088;SDS011;51898;49.864;8.550;2022-11-27T09:04:02;98.60;;;21.10;;
10088;SDS011;51898;49.864;8.550;2022-11-27T09:08:04;56.17;;;22.20;;
10088;SDS011;51898;49.864;8.550;2022-11-27T09:11:38;56.13;;;16.93;;
10088;SDS011;51898;49.864;8.550;2022-11-27T09:14:47;63.37;;;17.40;;
10088;SDS011;51898;49.864;8.550;2022-11-27T09:17:51;66.87;;;18.17;;
10088;SDS011;51898;49.864;8.550;2022-11-27T09:21:00;87.37;;;22.27;;
10088;SDS011;51898;49.864;8.550;2022-11-27T09:24:04;36.20;;;17.37;;
10088;SDS011;51898;49.864;8.550;2022-11-27T09:27:09;50.30;;;16.00;;
10088;SDS011;51898;49.864;8.550;2022-11-27T09:30:11;43.90;;;17.40;;
10088;SDS011;51898;49.864;8.550;2022-11-27T09:33:14;50.23;;;15.40;;
10088;SDS011;51898;49.864;8.550;2022-11-27T09:36:27;29.10;;;14.50;;
10088;SDS011;51898;49.864;8.550;2022-11-27T09:39:38;38.20;;;13.80;;
10088;SDS011;51898;49.864;8.550;2022-11-27T09:42:58;32.50;;;14.27;;
10088;SDS011;51898;49.864;8.550;2022-11-27T09:46:49;24.83;;;13.90;;
10088;SDS011;51898;49.864;8.550;2022-11-27T09:50:25;26.03;;;14.30;;
10088;SDS011;51898;49.864;8.550;2022-11-27T09:53:49;25.00;;;12.83;;
10088;SDS011;51898;49.864;8.550;2022-11-27T09:57:07;29.80;;;18.63;;
10088;SDS011;51898;49.864;8.550;2022-11-27T10:00:17;32.07;;;15.43;;
10088;SDS011;51898;49.864;8.550;2022-11-27T10:03:40;58.77;;;14.73;;
10088;SDS011;51898;49.864;8.550;2022-11-27T10:10:15;29.83;;;14.33;;
10088;SDS011;51898;49.864;8.550;2022-11-27T10:17:02;41.57;;;17.47;;
10088;SDS011;51898;49.864;8.550;2022-11-27T10:20:17;45.23;;;20.80;;
10088;SDS011;51898;49.864;8.550;2022-11-27T10:23:39;30.53;;;16.70;;
10088;SDS011;51898;49.864;8.550;2022-11-27T10:26:45;34.07;;;18.87;;
10088;SDS011;51898;49.864;8.550;2022-11-27T10:29:55;37.67;;;23.43;;
10088;SDS011;51898;49.864;8.550;2022-11-27T10:33:06;31.90;;;14.13;;
10088;SDS011;51898;49.864;8.550;2022-11-27T10:36:17;35.53;;;17.20;;
10088;SDS011;51898;49.864;8.550;2022-11-27T10:39:31;45.93;;;31.90;;
10088;SDS011;51898;49.864;8.550;2022-11-27T10:42:48;32.90;;;17.70;;
10088;SDS011;51898;49.864;8.550;2022-11-27T10:49:01;29.27;;;16.30;;
10088;SDS011;51898;49.864;8.550;2022-11-27T10:52:07;28.90;;;15.77;;
10088;SDS011;51898;49.864;8.550;2022-11-27T10:55:20;28.27;;;15.83;;
10088;SDS011;51898;49.864;8.550;2022-11-27T11:02:28;25.63;;;14.60;;
10088;SDS011;51898;49.864;8.550;2022-11-27T11:06:01;23.90;;;13.97;;
10088;SDS011;51898;49.864;8.550;2022-11-27T11:09:30;27.17;;;15.13;;
10088;SDS011;51898;49.864;8.550;2022-11-27T11:12:42;28.40;;;14.70;;
10088;SDS011;51898;49.864;8.550;2022-11-27T11:15:47;29.67;;;14.77;;
10088;SDS011;51898;49.864;8.550;2022-11-27T11:18:54;28.80;;;15.53;;
10088;SDS011;51898;49.864;8.550;2022-11-27T11:22:22;28.90;;;15.33;;
10088;SDS011;51898;49.864;8.550;2022-11-27T11:25:27;27.30;;;15.77;;
10088;SDS011;51898;49.864;8.550;2022-11-27T11:28:46;29.63;;;14.67;;
10088;SDS011;51898;49.864;8.550;2022-11-27T11:35:26;32.93;;;16.17;;
10088;SDS011;51898;49.864;8.550;2022-11-27T11:38:32;24.57;;;14.70;;
10088;SDS011;51898;49.864;8.550;2022-11-27T11:41:40;28.90;;;15.23;;
10088;SDS011;51898;49.864;8.550;2022-11-27T11:44:50;26.43;;;15.90;;
10088;SDS011;51898;49.864;8.550;2022-11-27T11:47:57;26.60;;;15.10;;
10088;SDS011;51898;49.864;8.550;2022-11-27T11:55:01;27.50;;;15.43;;
10088;SDS011;51898;49.864;8.550;2022-11-27T12:10:02;25.77;;;14.80;;
10088;SDS011;51898;49.864;8.550;2022-11-27T12:13:54;24.93;;;15.07;;
10088;SDS011;51898;49.864;8.550;2022-11-27T12:21:49;21.87;;;13.00;;
10088;SDS011;51898;49.864;8.550;2022-11-27T12:25:32;24.20;;;13.00;;
10088;SDS011;51898;49.864;8.550;2022-11-27T12:35:54;27.83;;;15.80;;
10088;SDS011;51898;49.864;8.550;2022-11-27T12:39:22;27.03;;;15.67;;
10088;SDS011;51898;49.864;8.550;2022-11-27T12:42:49;29.43;;;15.00;;
10088;SDS011;51898;49.864;8.550;2022-11-27T12:46:39;26.53;;;14.77;;
10088;SDS011;51898;49.864;8.550;2022-11-27T12:54:32;32.33;;;18.93;;
10088;SDS011;51898;49.864;8.550;2022-11-27T12:58:08;25.47;;;15.17;;
10088;SDS011;51898;49.864;8.550;2022-11-27T13:01:40;23.73;;;15.00;;
10088;SDS011;51898;49.864;8.550;2022-11-27T13:08:15;22.40;;;13.50;;
10088;SDS011;51898;49.864;8.550;2022-11-27T13:11:26;22.53;;;14.00;;
10088;SDS011;51898;49.864;8.550;2022-11-27T13:15:29;22.60;;;13.97;;
10088;SDS011;51898;49.864;8.550;2022-11-27T13:19:54;24.67;;;14.80;;
10088;SDS011;51898;49.864;8.550;2022-11-27T13:23:34;23.07;;;14.50;;
10088;SDS011;51898;49.864;8.550;2022-11-27T13:27:41;26.70;;;15.40;;
10088;SDS011;51898;49.864;8.550;2022-11-27T13:35:43;22.13;;;13.77;;
10088;SDS011;51898;49.864;8.550;2022-11-27T13:39:03;21.13;;;13.33;;
10088;SDS011;51898;49.864;8.550;2022-11-27T13:42:29;24.00;;;14.77;;
10088;SDS011;51898;49.864;8.550;2022-11-27T13:45:36;19.97;;;14.30;;
10088;SDS011;51898;49.864;8.550;2022-11-27T13:48:40;33.40;;;13.97;;
10088;SDS011;51898;49.864;8.550;2022-11-27T13:52:16;28.80;;;17.03;;
10088;SDS011;51898;49.864;8.550;2022-11-27T13:55:36;22.30;;;14.67;;
10088;SDS011;51898;49.864;8.550;2022-11-27T13:59:23;24.40;;;15.70;;
10088;SDS011;51898;49.864;8.550;2022-11-27T14:10:05;25.37;;;17.27;;
10088;SDS011;51898;49.864;8.550;2022-11-27T14:13:43;27.10;;;14.70;;
10088;SDS011;51898;49.864;8.550;2022-11-27T14:17:47;25.10;;;14.73;;
10088;SDS011;51898;49.864;8.550;2022-11-27T14:21:24;29.30;;;17.70;;
10088;SDS011;51898;49.864;8.550;2022-11-27T14:24:39;28.10;;;17.57;;
10088;SDS011;51898;49.864;8.550;2022-11-27T14:28:35;31.10;;;16.93;;
10088;SDS011;51898;49.864;8.550;2022-11-27T14:36:30;27.53;;;17.33;;
10088;SDS011;51898;49.864;8.550;2022-11-27T14:39:38;26.03;;;15.07;;
10088;SDS011;51898;49.864;8.550;2022-11-27T14:42:51;27.50;;;16.60;;
10088;SDS011;51898;49.864;8.550;2022-11-27T14:47:26;27.87;;;16.57;;
10088;SDS011;51898;49.864;8.550;2022-11-27T14:51:21;26.00;;;15.73;;
10088;SDS011;51898;49.864;8.550;2022-11-27T14:55:21;29.60;;;17.13;;
10088;SDS011;51898;49.864;8.550;2022-11-27T14:58:46;29.77;;;17.70;;
10088;SDS011;51898;49.864;8.550;2022-11-27T15:05:54;28.23;;;17.13;;
10088;SDS011;51898;49.864;8.550;2022-11-27T15:09:06;29.23;;;15.97;;
10088;SDS011;51898;49.864;8.550;2022-11-27T15:12:58;28.93;;;16.50;;
10088;SDS011;51898;49.864;8.550;2022-11-27T15:16:19;28.03;;;16.63;;
10088;SDS011;51898;49.864;8.550;2022-11-27T15:19:54;33.43;;;18.27;;
10088;SDS011;51898;49.864;8.550;2022-11-27T15:26:35;32.63;;;17.90;;
10088;SDS011;51898;49.864;8.550;2022-11-27T15:29:41;45.43;;;20.73;;
10088;SDS011;51898;49.864;8.550;2022-11-27T15:32:56;35.73;;;20.30;;
10088;SDS011;51898;49.864;8.550;2022-11-27T15:36:13;38.17;;;21.43;;
10088;SDS011;51898;49.864;8.550;2022-11-27T15:39:55;37.70;;;21.00;;
10088;SDS011;51898;49.864;8.550;2022-11-27T15:43:16;35.23;;;19.43;;
10088;SDS011;51898;49.864;8.550;2022-11-27T15:46:52;30.70;;;19.80;;
10088;SDS011;51898;49.864;8.550;2022-11-27T15:50:01;32.50;;;21.13;;
10088;SDS011;51898;49.864;8.550;2022-11-27T15:53:13;30.63;;;18.37;;
10088;SDS011;51898;49.864;8.550;2022-11-27T16:00:39;29.90;;;18.03;;
10088;SDS011;51898;49.864;8.550;2022-11-27T16:07:35;33.37;;;20.87;;
10088;SDS011;51898;49.864;8.550;2022-11-27T16:10:47;37.50;;;21.87;;
10088;SDS011;51898;49.864;8.550;2022-11-27T16:14:02;31.40;;;18.80;;
10088;SDS011;51898;49.864;8.550;2022-11-27T16:17:10;30.83;;;20.70;;
10088;SDS011;51898;49.864;8.550;2022-11-27T16:25:07;32.33;;;18.67;;
10088;SDS011;51898;49.864;8.550;2022-11-27T16:28:12;28.80;;;18.60;;
10088;SDS011;51898;49.864;8.550;2022-11-27T16:39:19;28.30;;;18.10;;
10088;SDS011;51898;49.864;8.550;2022-11-27T16:48:16;27.03;;;16.53;;
10088;SDS011;51898;49.864;8.550;2022-11-27T16:59:20;26.60;;;16.30;;
10088;SDS011;51898;49.864;8.550;2022-11-27T17:02:26;24.20;;;15.60;;
10088;SDS011;51898;49.864;8.550;2022-11-27T17:06:07;23.90;;;15.57;;
10088;SDS011;51898;49.864;8.550;2022-11-27T17:09:47;21.10;;;14.43;;
10088;SDS011;51898;49.864;8.550;2022-11-27T17:16:54;29.03;;;15.30;;
10088;SDS011;51898;49.864;8.550;2022-11-27T17:20:01;24.50;;;15.80;;
10088;SDS011;51898;49.864;8.550;2022-11-27T17:23:14;28.00;;;17.10;;
10088;SDS011;51898;49.864;8.550;2022-11-27T17:26:28;32.70;;;16.73;;
10088;SDS011;51898;49.864;8.550;2022-11-27T17:29:41;26.13;;;16.63;;
10088;SDS011;51898;49.864;8.550;2022-11-27T17:32:54;31.83;;;16.47;;
10088;SDS011;51898;49.864;8.550;2022-11-27T17:36:25;28.00;;;17.17;;
10088;SDS011;51898;49.864;8.550;2022-11-27T17:39:58;28.57;;;15.67;;
10088;SDS011;51898;49.864;8.550;2022-11-27T17:43:03;29.93;;;17.37;;
10088;SDS011;51898;49.864;8.550;2022-11-27T17:46:24;27.70;;;16.17;;
10088;SDS011;51898;49.864;8.550;2022-11-27T17:49:27;27.90;;;15.90;;
10088;SDS011;51898;49.864;8.550;2022-11-27T17:52:36;33.13;;;19.63;;
10088;SDS011;51898;49.864;8.550;2022-11-27T17:55:41;34.63;;;17.20;;
10088;SDS011;51898;49.864;8.550;2022-11-27T17:58:49;32.03;;;18.27;;
10088;SDS011;51898;49.864;8.550;2022-11-27T18:02:14;28.50;;;16.47;;
10088;SDS011;51898;49.864;8.550;2022-11-27T18:06:25;26.30;;;16.47;;
10088;SDS011;51898;49.864;8.550;2022-11-27T18:09:40;24.90;;;15.93;;
10088;SDS011;51898;49.864;8.550;2022-11-27T18:12:45;28.70;;;17.17;;
10088;SDS011;51898;49.864;8.550;2022-11-27T18:15:47;29.77;;;16.67;;
10088;SDS011;51898;49.864;8.550;2022-11-27T18:18:53;28.97;;;17.20;;
10088;SDS011;51898;49.864;8.550;2022-11-27T18:33:01;33.40;;;20.60;;
10088;SDS011;51898;49.864;8.550;2022-11-27T18:36:23;34.10;;;20.60;;
10088;SDS011;51898;49.864;8.550;2022-11-27T18:39:44;26.10;;;16.80;;
10088;SDS011;51898;49.864;8.550;2022-11-27T18:46:44;23.80;;;15.20;;
10088;SDS011;51898;49.864;8.550;2022-11-27T18:49:52;30.13;;;18.40;;
10088;SDS011;51898;49.864;8.550;2022-11-27T18:53:07;32.70;;;20.13;;
10088;SDS011;51898;49.864;8.550;2022-11-27T18:56:41;27.93;;;16.90;;
10088;SDS011;51898;49.864;8.550;2022-11-27T18:59:51;25.43;;;15.73;;
10088;SDS011;51898;49.864;8.550;2022-11-27T19:02:56;22.40;;;15.30;;
10088;SDS011;51898;49.864;8.550;2022-11-27T19:06:04;30.70;;;16.83;;
10088;SDS011;51898;49.864;8.550;2022-11-27T19:09:30;39.37;;;24.20;;
10088;SDS011;51898;49.864;8.550;2022-11-27T19:12:35;37.40;;;22.47;;
10088;SDS011;51898;49.864;8.550;2022-11-27T19:15:46;25.70;;;16.33;;
10088;SDS011;51898;49.864;8.550;2022-11-27T19:19:09;32.20;;;19.27;;
10088;SDS011;51898;49.864;8.550;2022-11-27T19:25:45;21.23;;;13.50;;
10088;SDS011;51898;49.864;8.550;2022-11-27T19:29:02;19.17;;;12.73;;
10088;SDS011;51898;49.864;8.550;2022-11-27T19:36:13;16.23;;;11.30;;
10088;SDS011;51898;49.864;8.550;2022-11-27T19:39:32;14.73;;;11.10;;
10088;SDS011;51898;49.864;8.550;2022-11-27T19:43:02;49.63;;;29.90;;
10088;SDS011;51898;49.864;8.550;2022-11-27T19:49:45;18.53;;;12.30;;
10088;SDS011;51898;49.864;8.550;2022-11-27T19:52:58;16.03;;;11.00;;
10088;SDS011;51898;49.864;8.550;2022-11-27T19:56:21;23.80;;;15.43;;
10088;SDS011;51898;49.864;8.550;2022-11-27T19:59:28;14.97;;;10.90;;
10088;SDS011;51898;49.864;8.550;2022-11-27T20:02:34;10.80;;;9.10;;
10088;SDS011;51898;49.864;8.550;2022-11-27T20:05:37;13.70;;;9.97;;
10088;SDS011;51898;49.864;8.550;2022-11-27T20:08:40;12.97;;;9.60;;
10088;SDS011;51898;49.864;8.550;2022-11-27T20:11:42;12.50;;;9.43;;
10088;SDS011;51898;49.864;8.550;2022-11-27T20:14:53;28.17;;;17.57;;
10088;SDS011;51898;49.864;8.550;2022-11-27T20:18:05;17.87;;;12.00;;
10088;SDS011;51898;49.864;8.550;2022-11-27T20:21:14;15.77;;;9.50;;
10088;SDS011;51898;49.864;8.550;2022-11-27T20:24:25;12.50;;;9.70;;
10088;SDS011;51898;49.864;8.550;2022-11-27T20:27:27;12.40;;;8.80;;
10088;SDS011;51898;49.864;8.550;2022-11-27T20:30:32;11.73;;;8.80;;
10088;SDS011;51898;49.864;8.550;2022-11-27T20:34:03;10.73;;;8.27;;
10088;SDS011;51898;49.864;8.550;2022-11-27T20:37:07;11.33;;;8.00;;
10088;SDS011;51898;49.864;8.550;2022-11-27T20:40:16;14.43;;;9.53;;
10088;SDS011;51898;49.864;8.550;2022-11-27T20:43:26;14.00;;;9.60;;
10088;SDS011;51898;49.864;8.550;2022-11-27T20:46:34;10.80;;;8.20;;
10088;SDS011;51898;49.864;8.550;2022-11-27T20:49:36;9.87;;;7.70;;
10088;SDS011;51898;49.864;8.550;2022-11-27T20:52:40;13.43;;;9.50;;
10088;SDS011;51898;49.864;8.550;2022-11-27T20:56:06;9.33;;;8.10;;
10088;SDS011;51898;49.864;8.550;2022-11-27T20:59:12;16.33;;;11.40;;
10088;SDS011;51898;49.864;8.550;2022-11-27T21:02:17;13.83;;;9.53;;
10088;SDS011;51898;49.864;8.550;2022-11-27T21:05:25;11.90;;;9.00;;
10088;SDS011;51898;49.864;8.550;2022-11-27T21:08:35;11.33;;;8.70;;
10088;SDS011;51898;49.864;8.550;2022-11-27T21:11:41;18.33;;;12.80;;
10088;SDS011;51898;49.864;8.550;2022-11-27T21:14:43;14.77;;;10.70;;
10088;SDS011;51898;49.864;8.550;2022-11-27T21:18:03;17.60;;;11.53;;
10088;SDS011;51898;49.864;8.550;2022-11-27T21:21:12;20.93;;;14.47;;
10088;SDS011;51898;49.864;8.550;2022-11-27T21:24:23;20.97;;;15.97;;
10088;SDS011;51898;49.864;8.550;2022-11-27T21:27:28;19.07;;;14.27;;
10088;SDS011;51898;49.864;8.550;2022-11-27T21:30:39;21.20;;;14.60;;
10088;SDS011;51898;49.864;8.550;2022-11-27T21:33:44;19.90;;;13.33;;
10088;SDS011;51898;49.864;8.550;2022-11-27T21:36:50;23.17;;;14.70;;